sensor_id;sensor_type;location;lat;lon;timestamp;pressure;altitude;pressure_sealevel;temperature;humidity
60920;BME280;59039;52.108;19.942;2022-07-18T00:00:28;101478.95;;;15.77;60.62
60920;BME280;59039;52.108;19.942;2022-07-18T00:02:53;101479.27;;;15.74;60.61
60920;BME280;59039;52.108;19.942;2022-07-18T00:05:18;101476.85;;;15.71;60.66
60920;BME280;59039;52.108;19.942;2022-07-18T00:07:44;101472.39;;;15.68;60.74
60920;BME280;59039;52.108;19.942;2022-07-18T00:10:09;101474.96;;;15.66;60.70
60920;BME280;59039;52.108;19.942;2022-07-18T00:12:35;101474.59;;;15.65;60.79
60920;BME280;59039;52.108;19.942;2022-07-18T00:15:00;101471.13;;;15.63;60.60
60920;BME280;59039;52.108;19.942;2022-07-18T00:17:25;101467.30;;;15.61;60.58
60920;BME280;59039;52.108;19.942;2022-07-18T00:19:51;101469.28;;;15.59;60.55
60920;BME280;59039;52.108;19.942;2022-07-18T00:22:16;101468.69;;;15.57;61.03
60920;BME280;59039;52.108;19.942;2022-07-18T00:24:41;101464.41;;;15.54;60.69
60920;BME280;59039;52.108;19.942;2022-07-18T00:27:07;101465.95;;;15.52;60.96
60920;BME280;59039;52.108;19.942;2022-07-18T00:29:33;101466.78;;;15.49;60.90
60920;BME280;59039;52.108;19.942;2022-07-18T00:31:58;101468.87;;;15.47;61.11
60920;BME280;59039;52.108;19.942;2022-07-18T00:34:24;101468.83;;;15.45;61.23
60920;BME280;59039;52.108;19.942;2022-07-18T00:36:49;101470.30;;;15.43;61.04
60920;BME280;59039;52.108;19.942;2022-07-18T00:39:14;101468.07;;;15.40;61.23
60920;BME280;59039;52.108;19.942;2022-07-18T00:41:45;101467.56;;;15.38;61.38
60920;BME280;59039;52.108;19.942;2022-07-18T00:44:18;101464.71;;;15.35;61.38
60920;BME280;59039;52.108;19.942;2022-07-18T00:46:44;101471.00;;;15.33;61.23
60920;BME280;59039;52.108;19.942;2022-07-18T00:49:09;101468.86;;;15.31;61.14
60920;BME280;59039;52.108;19.942;2022-07-18T00:51:34;101467.02;;;15.27;61.18
60920;BME280;59039;52.108;19.942;2022-07-18T00:54:00;101466.00;;;15.24;61.05
60920;BME280;59039;52.108;19.942;2022-07-18T00:56:25;101469.12;;;15.21;61.40
60920;BME280;59039;52.108;19.942;2022-07-18T00:58:50;101470.71;;;15.18;61.96
60920;BME280;59039;52.108;19.942;2022-07-18T01:01:15;101477.30;;;15.15;62.11
60920;BME280;59039;52.108;19.942;2022-07-18T01:03:41;101476.92;;;15.11;62.14
60920;BME280;59039;52.108;19.942;2022-07-18T01:06:07;101477.30;;;15.08;61.92
60920;BME280;59039;52.108;19.942;2022-07-18T01:08:32;101480.33;;;15.04;61.79
60920;BME280;59039;52.108;19.942;2022-07-18T01:10:58;101479.31;;;15.02;62.25
60920;BME280;59039;52.108;19.942;2022-07-18T01:13:23;101476.37;;;14.98;62.15
60920;BME280;59039;52.108;19.942;2022-07-18T01:15:48;101476.61;;;14.95;62.37
60920;BME280;59039;52.108;19.942;2022-07-18T01:18:14;101475.25;;;14.88;62.61
60920;BME280;59039;52.108;19.942;2022-07-18T01:20:39;101473.80;;;14.83;62.45
60920;BME280;59039;52.108;19.942;2022-07-18T01:23:05;101479.37;;;14.78;62.43
60920;BME280;59039;52.108;19.942;2022-07-18T01:25:31;101479.06;;;14.74;62.46
60920;BME280;59039;52.108;19.942;2022-07-18T01:27:56;101481.79;;;14.71;62.61
60920;BME280;59039;52.108;19.942;2022-07-18T01:30:22;101483.38;;;14.68;62.53
60920;BME280;59039;52.108;19.942;2022-07-18T01:32:57;101488.86;;;14.66;62.72
60920;BME280;59039;52.108;19.942;2022-07-18T01:35:24;101482.63;;;14.64;63.03
60920;BME280;59039;52.108;19.942;2022-07-18T01:37:54;101481.04;;;14.62;63.11
60920;BME280;59039;52.108;19.942;2022-07-18T01:40:20;101478.76;;;14.59;63.19
60920;BME280;59039;52.108;19.942;2022-07-18T01:42:45;101477.69;;;14.57;63.11
60920;BME280;59039;52.108;19.942;2022-07-18T01:45:11;101484.60;;;14.55;63.31
60920;BME280;59039;52.108;19.942;2022-07-18T01:47:36;101481.45;;;14.54;63.77
60920;BME280;59039;52.108;19.942;2022-07-18T01:50:02;101478.65;;;14.51;63.66
60920;BME280;59039;52.108;19.942;2022-07-18T01:52:27;101478.66;;;14.49;63.76
60920;BME280;59039;52.108;19.942;2022-07-18T01:54:52;101482.52;;;14.47;64.04
60920;BME280;59039;52.108;19.942;2022-07-18T01:57:18;101487.98;;;14.43;63.79
60920;BME280;59039;52.108;19.942;2022-07-18T01:59:43;101490.76;;;14.41;63.52
60920;BME280;59039;52.108;19.942;2022-07-18T02:02:08;101491.33;;;14.39;63.97
60920;BME280;59039;52.108;19.942;2022-07-18T02:04:34;101495.63;;;14.34;64.03
60920;BME280;59039;52.108;19.942;2022-07-18T02:06:59;101496.77;;;14.30;64.12
60920;BME280;59039;52.108;19.942;2022-07-18T02:09:24;101495.71;;;14.26;64.47
60920;BME280;59039;52.108;19.942;2022-07-18T02:11:50;101497.44;;;14.21;64.74
60920;BME280;59039;52.108;19.942;2022-07-18T02:14:15;101496.99;;;14.17;64.70
60920;BME280;59039;52.108;19.942;2022-07-18T02:16:40;101501.59;;;14.12;64.81
60920;BME280;59039;52.108;19.942;2022-07-18T02:19:05;101502.59;;;14.08;65.13
60920;BME280;59039;52.108;19.942;2022-07-18T02:21:31;101501.48;;;14.03;65.02
60920;BME280;59039;52.108;19.942;2022-07-18T02:23:56;101501.50;;;13.99;65.11
60920;BME280;59039;52.108;19.942;2022-07-18T02:26:21;101503.13;;;13.97;65.15
60920;BME280;59039;52.108;19.942;2022-07-18T02:28:46;101509.67;;;13.93;65.13
60920;BME280;59039;52.108;19.942;2022-07-18T02:31:12;101509.46;;;13.90;65.11
60920;BME280;59039;52.108;19.942;2022-07-18T02:33:37;101512.98;;;13.86;65.11
60920;BME280;59039;52.108;19.942;2022-07-18T02:36:02;101514.75;;;13.83;64.89
60920;BME280;59039;52.108;19.942;2022-07-18T02:38:28;101511.96;;;13.81;65.21
60920;BME280;59039;52.108;19.942;2022-07-18T02:40:53;101511.52;;;13.80;65.00
60920;BME280;59039;52.108;19.942;2022-07-18T02:43:18;101509.88;;;13.80;65.41
60920;BME280;59039;52.108;19.942;2022-07-18T02:45:43;101508.84;;;13.79;65.53
60920;BME280;59039;52.108;19.942;2022-07-18T02:48:09;101505.10;;;13.79;65.01
60920;BME280;59039;52.108;19.942;2022-07-18T02:50:34;101503.39;;;13.77;65.25
60920;BME280;59039;52.108;19.942;2022-07-18T02:52:59;101502.52;;;13.77;64.97
60920;BME280;59039;52.108;19.942;2022-07-18T02:55:25;101503.45;;;13.77;65.30
60920;BME280;59039;52.108;19.942;2022-07-18T02:57:51;101501.68;;;13.76;65.35
60920;BME280;59039;52.108;19.942;2022-07-18T03:00:16;101500.67;;;13.75;65.87
60920;BME280;59039;52.108;19.942;2022-07-18T03:02:45;101502.80;;;13.74;65.50
60920;BME280;59039;52.108;19.942;2022-07-18T03:05:11;101504.15;;;13.73;65.80
60920;BME280;59039;52.108;19.942;2022-07-18T03:07:37;101507.63;;;13.71;65.75
60920;BME280;59039;52.108;19.942;2022-07-18T03:10:04;101510.71;;;13.70;65.93
60920;BME280;59039;52.108;19.942;2022-07-18T03:12:30;101509.15;;;13.69;65.87
60920;BME280;59039;52.108;19.942;2022-07-18T03:14:55;101507.55;;;13.67;66.08
60920;BME280;59039;52.108;19.942;2022-07-18T03:17:21;101507.52;;;13.65;66.05
60920;BME280;59039;52.108;19.942;2022-07-18T03:19:46;101510.72;;;13.66;65.97
60920;BME280;59039;52.108;19.942;2022-07-18T03:22:11;101510.78;;;13.65;65.42
60920;BME280;59039;52.108;19.942;2022-07-18T03:24:37;101507.55;;;13.65;65.57
60920;BME280;59039;52.108;19.942;2022-07-18T03:27:02;101507.04;;;13.64;66.30
60920;BME280;59039;52.108;19.942;2022-07-18T03:29:27;101508.52;;;13.64;66.23
60920;BME280;59039;52.108;19.942;2022-07-18T03:31:53;101511.52;;;13.65;66.40
60920;BME280;59039;52.108;19.942;2022-07-18T03:34:18;101512.23;;;13.67;66.31
60920;BME280;59039;52.108;19.942;2022-07-18T03:36:44;101510.02;;;13.69;66.22
60920;BME280;59039;52.108;19.942;2022-07-18T03:39:10;101509.81;;;13.71;66.05
60920;BME280;59039;52.108;19.942;2022-07-18T03:41:36;101510.88;;;13.74;66.00
60920;BME280;59039;52.108;19.942;2022-07-18T03:44:03;101508.88;;;13.75;66.54
60920;BME280;59039;52.108;19.942;2022-07-18T03:46:28;101510.89;;;13.77;66.68
60920;BME280;59039;52.108;19.942;2022-07-18T03:48:54;101512.44;;;13.80;66.38
60920;BME280;59039;52.108;19.942;2022-07-18T03:51:19;101514.48;;;13.83;66.37
60920;BME280;59039;52.108;19.942;2022-07-18T03:53:44;101513.64;;;13.86;66.42
60920;BME280;59039;52.108;19.942;2022-07-18T03:56:10;101517.42;;;13.91;66.66
60920;BME280;59039;52.108;19.942;2022-07-18T03:58:35;101516.40;;;13.93;66.58
60920;BME280;59039;52.108;19.942;2022-07-18T04:01:01;101517.77;;;13.98;66.62
60920;BME280;59039;52.108;19.942;2022-07-18T04:03:26;101514.27;;;14.02;66.55
60920;BME280;59039;52.108;19.942;2022-07-18T04:05:51;101512.04;;;14.06;66.55
60920;BME280;59039;52.108;19.942;2022-07-18T04:08:17;101512.95;;;14.12;66.57
60920;BME280;59039;52.108;19.942;2022-07-18T04:10:42;101517.13;;;14.17;66.76
60920;BME280;59039;52.108;19.942;2022-07-18T04:13:08;101516.59;;;14.23;66.48
60920;BME280;59039;52.108;19.942;2022-07-18T04:15:33;101516.23;;;14.29;66.49
60920;BME280;59039;52.108;19.942;2022-07-18T04:17:59;101514.56;;;14.36;66.55
60920;BME280;59039;52.108;19.942;2022-07-18T04:20:24;101515.21;;;14.43;66.48
60920;BME280;59039;52.108;19.942;2022-07-18T04:22:55;101507.25;;;14.49;66.29
60920;BME280;59039;52.108;19.942;2022-07-18T04:25:23;101511.62;;;14.57;66.38
60920;BME280;59039;52.108;19.942;2022-07-18T04:27:49;101511.10;;;14.64;65.95
60920;BME280;59039;52.108;19.942;2022-07-18T04:30:17;101509.04;;;14.70;65.99
60920;BME280;59039;52.108;19.942;2022-07-18T04:32:43;101512.06;;;14.76;65.82
60920;BME280;59039;52.108;19.942;2022-07-18T04:35:09;101510.84;;;14.82;65.71
60920;BME280;59039;52.108;19.942;2022-07-18T04:37:35;101512.85;;;14.88;65.58
60920;BME280;59039;52.108;19.942;2022-07-18T04:40:01;101514.41;;;14.94;65.92
60920;BME280;59039;52.108;19.942;2022-07-18T04:42:27;101512.39;;;15.01;65.66
60920;BME280;59039;52.108;19.942;2022-07-18T04:44:52;101514.83;;;15.08;65.57
60920;BME280;59039;52.108;19.942;2022-07-18T04:47:18;101514.16;;;15.15;65.67
60920;BME280;59039;52.108;19.942;2022-07-18T04:49:43;101513.00;;;15.20;65.66
60920;BME280;59039;52.108;19.942;2022-07-18T04:52:09;101513.58;;;15.27;65.61
60920;BME280;59039;52.108;19.942;2022-07-18T04:54:34;101512.61;;;15.35;65.75
60920;BME280;59039;52.108;19.942;2022-07-18T04:56:59;101511.36;;;15.41;65.68
60920;BME280;59039;52.108;19.942;2022-07-18T04:59:25;101508.42;;;15.49;65.84
60920;BME280;59039;52.108;19.942;2022-07-18T05:01:50;101512.27;;;15.56;65.75
60920;BME280;59039;52.108;19.942;2022-07-18T05:04:15;101510.66;;;15.64;65.62
60920;BME280;59039;52.108;19.942;2022-07-18T05:06:40;101508.03;;;15.73;65.48
60920;BME280;59039;52.108;19.942;2022-07-18T05:09:06;101508.81;;;15.84;65.63
60920;BME280;59039;52.108;19.942;2022-07-18T05:11:31;101508.19;;;15.95;65.36
60920;BME280;59039;52.108;19.942;2022-07-18T05:13:56;101503.41;;;16.05;65.23
60920;BME280;59039;52.108;19.942;2022-07-18T05:16:21;101506.75;;;16.15;65.18
60920;BME280;59039;52.108;19.942;2022-07-18T05:18:47;101499.41;;;16.24;64.95
60920;BME280;59039;52.108;19.942;2022-07-18T05:21:12;101500.27;;;16.33;64.73
60920;BME280;59039;52.108;19.942;2022-07-18T05:23:37;101499.77;;;16.40;64.28
60920;BME280;59039;52.108;19.942;2022-07-18T05:26:02;101498.34;;;16.47;64.13
60920;BME280;59039;52.108;19.942;2022-07-18T05:28:28;101499.73;;;16.53;65.12
60920;BME280;59039;52.108;19.942;2022-07-18T05:30:53;101499.17;;;16.58;65.19
60920;BME280;59039;52.108;19.942;2022-07-18T05:33:18;101501.90;;;16.63;65.01
60920;BME280;59039;52.108;19.942;2022-07-18T05:35:44;101502.52;;;16.67;65.18
60920;BME280;59039;52.108;19.942;2022-07-18T05:38:09;101500.30;;;16.71;64.92
60920;BME280;59039;52.108;19.942;2022-07-18T05:40:35;101503.16;;;16.74;64.99
60920;BME280;59039;52.108;19.942;2022-07-18T05:43:00;101502.53;;;16.76;64.86
60920;BME280;59039;52.108;19.942;2022-07-18T05:45:25;101503.02;;;16.81;64.64
60920;BME280;59039;52.108;19.942;2022-07-18T05:47:52;101503.14;;;16.87;64.49
60920;BME280;59039;52.108;19.942;2022-07-18T05:50:17;101500.54;;;16.96;64.48
60920;BME280;59039;52.108;19.942;2022-07-18T05:52:43;101502.67;;;17.04;64.36
60920;BME280;59039;52.108;19.942;2022-07-18T05:55:09;101502.36;;;17.16;64.71
60920;BME280;59039;52.108;19.942;2022-07-18T05:57:35;101497.03;;;17.27;64.58
60920;BME280;59039;52.108;19.942;2022-07-18T06:00:02;101492.15;;;17.40;64.13
60920;BME280;59039;52.108;19.942;2022-07-18T06:02:28;101488.80;;;17.53;63.92
60920;BME280;59039;52.108;19.942;2022-07-18T06:04:53;101486.85;;;17.68;64.08
60920;BME280;59039;52.108;19.942;2022-07-18T06:07:18;101484.89;;;17.83;63.87
60920;BME280;59039;52.108;19.942;2022-07-18T06:09:43;101490.13;;;17.98;63.54
60920;BME280;59039;52.108;19.942;2022-07-18T06:12:09;101490.18;;;18.14;63.48
60920;BME280;59039;52.108;19.942;2022-07-18T06:14:35;101490.94;;;18.33;63.05
60920;BME280;59039;52.108;19.942;2022-07-18T06:17:00;101490.84;;;18.52;61.53
60920;BME280;59039;52.108;19.942;2022-07-18T06:19:26;101494.17;;;18.68;61.74
60920;BME280;59039;52.108;19.942;2022-07-18T06:21:51;101488.89;;;18.81;61.13
60920;BME280;59039;52.108;19.942;2022-07-18T06:24:17;101493.44;;;18.95;60.77
60920;BME280;59039;52.108;19.942;2022-07-18T06:26:42;101496.59;;;19.07;60.13
60920;BME280;59039;52.108;19.942;2022-07-18T06:29:07;101496.07;;;19.19;60.52
60920;BME280;59039;52.108;19.942;2022-07-18T06:31:32;101501.20;;;19.28;58.77
60920;BME280;59039;52.108;19.942;2022-07-18T06:33:58;101502.16;;;19.35;59.29
60920;BME280;59039;52.108;19.942;2022-07-18T06:36:23;101498.26;;;19.40;57.65
60920;BME280;59039;52.108;19.942;2022-07-18T06:38:49;101499.35;;;19.45;57.27
60920;BME280;59039;52.108;19.942;2022-07-18T06:41:14;101499.40;;;19.50;58.06
60920;BME280;59039;52.108;19.942;2022-07-18T06:43:39;101502.34;;;19.56;57.23
60920;BME280;59039;52.108;19.942;2022-07-18T06:46:05;101502.20;;;19.61;57.47
60920;BME280;59039;52.108;19.942;2022-07-18T06:48:30;101500.83;;;19.68;56.80
60920;BME280;59039;52.108;19.942;2022-07-18T06:50:55;101499.26;;;19.77;56.58
60920;BME280;59039;52.108;19.942;2022-07-18T06:53:20;101498.55;;;19.96;55.79
60920;BME280;59039;52.108;19.942;2022-07-18T06:55:46;101497.68;;;20.12;56.44
60920;BME280;59039;52.108;19.942;2022-07-18T06:58:11;101495.73;;;20.26;55.00
60920;BME280;59039;52.108;19.942;2022-07-18T07:00:36;101497.83;;;20.37;55.17
60920;BME280;59039;52.108;19.942;2022-07-18T07:03:02;101495.92;;;20.54;54.28
60920;BME280;59039;52.108;19.942;2022-07-18T07:05:27;101492.78;;;20.75;55.39
60920;BME280;59039;52.108;19.942;2022-07-18T07:07:52;101492.33;;;20.93;55.21
60920;BME280;59039;52.108;19.942;2022-07-18T07:10:18;101492.20;;;21.15;54.56
60920;BME280;59039;52.108;19.942;2022-07-18T07:12:53;101496.06;;;21.41;54.39
60920;BME280;59039;52.108;19.942;2022-07-18T07:15:21;101496.34;;;21.71;51.91
60920;BME280;59039;52.108;19.942;2022-07-18T07:17:48;101490.79;;;22.02;51.24
60920;BME280;59039;52.108;19.942;2022-07-18T07:20:14;101491.96;;;22.34;52.15
60920;BME280;59039;52.108;19.942;2022-07-18T07:22:45;101489.56;;;22.68;51.03
60920;BME280;59039;52.108;19.942;2022-07-18T07:25:11;101487.95;;;23.03;50.69
60920;BME280;59039;52.108;19.942;2022-07-18T07:27:36;101486.95;;;23.34;50.44
60920;BME280;59039;52.108;19.942;2022-07-18T07:30:02;101484.70;;;23.62;49.40
60920;BME280;59039;52.108;19.942;2022-07-18T07:32:28;101483.15;;;23.91;47.74
60920;BME280;59039;52.108;19.942;2022-07-18T07:34:53;101482.77;;;24.19;48.03
60920;BME280;59039;52.108;19.942;2022-07-18T07:37:18;101482.11;;;24.47;47.21
60920;BME280;59039;52.108;19.942;2022-07-18T07:39:43;101479.25;;;24.72;45.62
60920;BME280;59039;52.108;19.942;2022-07-18T07:42:09;101478.13;;;24.98;46.09
60920;BME280;59039;52.108;19.942;2022-07-18T07:44:34;101475.71;;;25.22;44.06
60920;BME280;59039;52.108;19.942;2022-07-18T07:46:59;101473.69;;;25.41;42.75
60920;BME280;59039;52.108;19.942;2022-07-18T07:49:25;101475.88;;;25.57;42.61
60920;BME280;59039;52.108;19.942;2022-07-18T07:51:50;101473.27;;;25.70;41.88
60920;BME280;59039;52.108;19.942;2022-07-18T07:54:16;101474.91;;;25.81;42.75
60920;BME280;59039;52.108;19.942;2022-07-18T07:56:41;101475.16;;;25.93;42.10
60920;BME280;59039;52.108;19.942;2022-07-18T07:59:06;101472.83;;;26.05;41.10
60920;BME280;59039;52.108;19.942;2022-07-18T08:01:31;101471.69;;;26.15;42.01
60920;BME280;59039;52.108;19.942;2022-07-18T08:03:57;101468.86;;;26.21;41.50
60920;BME280;59039;52.108;19.942;2022-07-18T08:06:22;101462.31;;;26.31;41.44
60920;BME280;59039;52.108;19.942;2022-07-18T08:08:47;101466.06;;;26.39;40.43
60920;BME280;59039;52.108;19.942;2022-07-18T08:11:12;101464.47;;;26.43;39.86
60920;BME280;59039;52.108;19.942;2022-07-18T08:13:37;101468.31;;;26.41;39.97
60920;BME280;59039;52.108;19.942;2022-07-18T08:16:03;101468.65;;;26.45;39.78
60920;BME280;59039;52.108;19.942;2022-07-18T08:18:28;101464.48;;;26.53;40.30
60920;BME280;59039;52.108;19.942;2022-07-18T08:20:53;101465.15;;;26.62;39.45
60920;BME280;59039;52.108;19.942;2022-07-18T08:23:19;101457.31;;;26.69;38.70
60920;BME280;59039;52.108;19.942;2022-07-18T08:25:45;101460.39;;;26.80;38.78
60920;BME280;59039;52.108;19.942;2022-07-18T08:28:11;101457.75;;;26.92;39.82
60920;BME280;59039;52.108;19.942;2022-07-18T08:30:37;101458.45;;;26.99;38.89
60920;BME280;59039;52.108;19.942;2022-07-18T08:33:03;101458.73;;;27.04;38.91
60920;BME280;59039;52.108;19.942;2022-07-18T08:35:30;101450.55;;;27.04;38.80
60920;BME280;59039;52.108;19.942;2022-07-18T08:37:55;101451.91;;;27.07;39.25
60920;BME280;59039;52.108;19.942;2022-07-18T08:40:21;101451.32;;;27.02;38.05
60920;BME280;59039;52.108;19.942;2022-07-18T08:42:49;101453.96;;;26.92;39.18
60920;BME280;59039;52.108;19.942;2022-07-18T08:45:15;101452.72;;;26.78;39.05
60920;BME280;59039;52.108;19.942;2022-07-18T08:47:43;101450.95;;;26.70;39.51
60920;BME280;59039;52.108;19.942;2022-07-18T08:50:09;101449.75;;;26.57;39.25
60920;BME280;59039;52.108;19.942;2022-07-18T08:52:35;101447.86;;;26.43;40.32
60920;BME280;59039;52.108;19.942;2022-07-18T08:55:01;101450.70;;;26.30;40.13
60920;BME280;59039;52.108;19.942;2022-07-18T08:57:26;101448.95;;;26.17;40.18
60920;BME280;59039;52.108;19.942;2022-07-18T08:59:52;101446.16;;;26.02;40.39
60920;BME280;59039;52.108;19.942;2022-07-18T09:02:17;101446.60;;;25.91;40.91
60920;BME280;59039;52.108;19.942;2022-07-18T09:04:44;101443.70;;;25.79;41.26
60920;BME280;59039;52.108;19.942;2022-07-18T09:07:10;101439.14;;;25.65;41.14
60920;BME280;59039;52.108;19.942;2022-07-18T09:09:52;101439.56;;;25.53;41.13
60920;BME280;59039;52.108;19.942;2022-07-18T09:12:17;101437.79;;;25.41;41.14
60920;BME280;59039;52.108;19.942;2022-07-18T09:14:44;101443.27;;;25.28;41.39
60920;BME280;59039;52.108;19.942;2022-07-18T09:19:41;101441.35;;;25.09;42.52
60920;BME280;59039;52.108;19.942;2022-07-18T09:22:19;101444.76;;;24.99;42.20
60920;BME280;59039;52.108;19.942;2022-07-18T09:24:58;101442.44;;;24.88;41.72
60920;BME280;59039;52.108;19.942;2022-07-18T09:32:34;101441.59;;;24.61;42.10
60920;BME280;59039;52.108;19.942;2022-07-18T09:35:10;101440.44;;;24.54;42.62
60920;BME280;59039;52.108;19.942;2022-07-18T09:37:36;101436.80;;;24.47;43.15
60920;BME280;59039;52.108;19.942;2022-07-18T09:40:22;101437.19;;;24.43;43.49
60920;BME280;59039;52.108;19.942;2022-07-18T09:42:56;101442.77;;;24.36;42.41
60920;BME280;59039;52.108;19.942;2022-07-18T09:45:23;101440.59;;;24.30;42.46
60920;BME280;59039;52.108;19.942;2022-07-18T09:48:01;101438.18;;;24.26;43.33
60920;BME280;59039;52.108;19.942;2022-07-18T09:50:30;101441.27;;;24.20;43.21
60920;BME280;59039;52.108;19.942;2022-07-18T09:53:01;101437.27;;;24.14;43.14
60920;BME280;59039;52.108;19.942;2022-07-18T09:55:26;101441.11;;;24.08;43.19
60920;BME280;59039;52.108;19.942;2022-07-18T09:58:01;101439.45;;;24.04;43.49
60920;BME280;59039;52.108;19.942;2022-07-18T10:00:28;101443.98;;;24.01;44.01
60920;BME280;59039;52.108;19.942;2022-07-18T10:02:54;101444.64;;;23.97;44.01
60920;BME280;59039;52.108;19.942;2022-07-18T10:05:20;101443.94;;;23.93;43.96
60920;BME280;59039;52.108;19.942;2022-07-18T10:07:46;101448.30;;;23.88;43.76
60920;BME280;59039;52.108;19.942;2022-07-18T10:10:14;101449.23;;;23.82;43.55
60920;BME280;59039;52.108;19.942;2022-07-18T10:12:40;101449.61;;;23.76;43.81
60920;BME280;59039;52.108;19.942;2022-07-18T10:15:06;101450.70;;;23.70;43.62
60920;BME280;59039;52.108;19.942;2022-07-18T10:17:31;101454.86;;;23.61;43.23
60920;BME280;59039;52.108;19.942;2022-07-18T10:20:05;101455.52;;;23.54;43.68
60920;BME280;59039;52.108;19.942;2022-07-18T10:22:39;101458.39;;;23.48;43.81
60920;BME280;59039;52.108;19.942;2022-07-18T10:25:15;101458.95;;;23.42;44.18
60920;BME280;59039;52.108;19.942;2022-07-18T10:27:53;101459.00;;;23.36;44.06
60920;BME280;59039;52.108;19.942;2022-07-18T10:31:12;101464.45;;;23.31;43.99
60920;BME280;59039;52.108;19.942;2022-07-18T10:33:44;101461.47;;;23.24;44.24
60920;BME280;59039;52.108;19.942;2022-07-18T10:36:12;101466.30;;;23.21;44.38
60920;BME280;59039;52.108;19.942;2022-07-18T10:38:38;101466.60;;;23.19;44.69
60920;BME280;59039;52.108;19.942;2022-07-18T10:41:14;101465.61;;;23.16;44.65
60920;BME280;59039;52.108;19.942;2022-07-18T10:43:42;101467.35;;;23.13;44.41
60920;BME280;59039;52.108;19.942;2022-07-18T10:46:09;101463.92;;;23.11;43.99
60920;BME280;59039;52.108;19.942;2022-07-18T10:54:13;101462.58;;;23.06;44.18
60920;BME280;59039;52.108;19.942;2022-07-18T10:59:18;101461.09;;;23.03;44.12
60920;BME280;59039;52.108;19.942;2022-07-18T11:01:55;101455.77;;;23.03;43.40
60920;BME280;59039;52.108;19.942;2022-07-18T11:04:29;101459.30;;;23.03;42.96
60920;BME280;59039;52.108;19.942;2022-07-18T11:07:14;101452.77;;;23.03;43.18
60920;BME280;59039;52.108;19.942;2022-07-18T11:09:44;101448.23;;;23.04;41.71
60920;BME280;59039;52.108;19.942;2022-07-18T11:12:29;101445.94;;;23.03;41.77
60920;BME280;59039;52.108;19.942;2022-07-18T11:18:00;101443.27;;;23.05;43.22
60920;BME280;59039;52.108;19.942;2022-07-18T11:20:41;101443.26;;;23.09;43.47
60920;BME280;59039;52.108;19.942;2022-07-18T11:23:16;101438.77;;;23.11;42.99
60920;BME280;59039;52.108;19.942;2022-07-18T11:25:45;101439.63;;;23.13;43.55
60920;BME280;59039;52.108;19.942;2022-07-18T11:28:11;101441.67;;;23.16;42.60
60920;BME280;59039;52.108;19.942;2022-07-18T11:30:38;101432.60;;;23.17;43.03
60920;BME280;59039;52.108;19.942;2022-07-18T11:33:05;101428.84;;;23.19;43.06
60920;BME280;59039;52.108;19.942;2022-07-18T11:35:31;101429.13;;;23.21;43.13
60920;BME280;59039;52.108;19.942;2022-07-18T11:37:57;101422.14;;;23.23;43.18
60920;BME280;59039;52.108;19.942;2022-07-18T11:40:28;101423.77;;;23.26;43.36
60920;BME280;59039;52.108;19.942;2022-07-18T11:42:56;101421.23;;;23.29;43.62
60920;BME280;59039;52.108;19.942;2022-07-18T11:45:22;101421.11;;;23.32;43.51
60920;BME280;59039;52.108;19.942;2022-07-18T11:47:52;101420.67;;;23.33;43.19
60920;BME280;59039;52.108;19.942;2022-07-18T11:50:25;101417.42;;;23.35;43.34
60920;BME280;59039;52.108;19.942;2022-07-18T11:52:56;101416.20;;;23.38;43.49
60920;BME280;59039;52.108;19.942;2022-07-18T11:55:34;101415.89;;;23.39;43.43
60920;BME280;59039;52.108;19.942;2022-07-18T11:58:12;101406.89;;;23.40;43.56
60920;BME280;59039;52.108;19.942;2022-07-18T12:00:38;101402.63;;;23.40;43.49
60920;BME280;59039;52.108;19.942;2022-07-18T12:03:18;101402.95;;;23.41;43.51
60920;BME280;59039;52.108;19.942;2022-07-18T12:05:49;101399.48;;;23.41;42.54
60920;BME280;59039;52.108;19.942;2022-07-18T12:08:48;101397.70;;;23.42;42.42
60920;BME280;59039;52.108;19.942;2022-07-18T12:11:15;101393.39;;;23.42;41.67
60920;BME280;59039;52.108;19.942;2022-07-18T12:16:37;101389.89;;;23.43;42.20
60920;BME280;59039;52.108;19.942;2022-07-18T12:19:03;101384.13;;;23.44;42.48
60920;BME280;59039;52.108;19.942;2022-07-18T12:21:52;101382.64;;;23.44;42.87
60920;BME280;59039;52.108;19.942;2022-07-18T12:24:53;101378.96;;;23.43;43.05
60920;BME280;59039;52.108;19.942;2022-07-18T12:27:21;101377.86;;;23.43;42.83
60920;BME280;59039;52.108;19.942;2022-07-18T12:32:50;101379.82;;;23.44;43.16
60920;BME280;59039;52.108;19.942;2022-07-18T12:35:20;101382.46;;;23.45;43.66
60920;BME280;59039;52.108;19.942;2022-07-18T12:40:55;101381.73;;;23.46;43.36
60920;BME280;59039;52.108;19.942;2022-07-18T12:43:35;101381.73;;;23.46;43.56
60920;BME280;59039;52.108;19.942;2022-07-18T12:46:10;101375.88;;;23.45;43.20
60920;BME280;59039;52.108;19.942;2022-07-18T12:48:36;101373.10;;;23.46;43.39
60920;BME280;59039;52.108;19.942;2022-07-18T12:53:31;101367.98;;;23.45;43.45
60920;BME280;59039;52.108;19.942;2022-07-18T12:55:57;101366.07;;;23.47;43.71
60920;BME280;59039;52.108;19.942;2022-07-18T12:58:23;101365.80;;;23.49;44.10
60920;BME280;59039;52.108;19.942;2022-07-18T13:00:48;101365.79;;;23.50;44.06
60920;BME280;59039;52.108;19.942;2022-07-18T13:03:14;101368.96;;;23.51;43.94
60920;BME280;59039;52.108;19.942;2022-07-18T13:05:41;101357.30;;;23.53;43.31
60920;BME280;59039;52.108;19.942;2022-07-18T13:08:06;101354.44;;;23.53;43.61
60920;BME280;59039;52.108;19.942;2022-07-18T13:10:32;101356.91;;;23.54;43.69